createdAt,value
2023-01-20T00:01:29.515Z,10.87
2023-01-20T00:03:57.795Z,10.17
2023-01-20T00:06:27.704Z,10.87
2023-01-20T00:08:59.028Z,9.83
2023-01-20T00:11:26.304Z,10.43
2023-01-20T00:13:57.454Z,10.00
2023-01-20T00:16:24.894Z,10.60
2023-01-20T00:18:52.261Z,10.23
2023-01-20T00:21:19.649Z,10.07
2023-01-20T00:23:47.442Z,10.07
2023-01-20T00:26:19.057Z,10.40
2023-01-20T00:28:46.959Z,10.67
2023-01-20T00:31:15.644Z,10.00
2023-01-20T00:33:43.803Z,10.27
2023-01-20T00:36:12.065Z,10.47
2023-01-20T00:38:39.353Z,10.37
2023-01-20T00:41:07.010Z,10.77
2023-01-20T00:43:34.397Z,10.33
2023-01-20T00:46:01.646Z,10.57
2023-01-20T00:48:28.914Z,10.03
2023-01-20T00:50:56.145Z,10.00
2023-01-20T00:53:23.405Z,10.10
2023-01-20T00:55:50.644Z,10.00
2023-01-20T00:58:17.957Z,10.23
2023-01-20T01:00:47.443Z,10.10
2023-01-20T01:03:14.958Z,10.57
2023-01-20T01:05:42.210Z,10.10
2023-01-20T01:08:09.638Z,10.17
2023-01-20T01:10:36.820Z,10.60
2023-01-20T01:13:04.692Z,10.07
2023-01-20T01:15:32.003Z,10.37
2023-01-20T01:17:59.722Z,9.87
2023-01-20T01:20:27.302Z,10.20
2023-01-20T01:22:54.582Z,10.83
2023-01-20T01:25:21.983Z,10.77
2023-01-20T01:27:49.172Z,10.60
2023-01-20T01:30:16.423Z,10.20
2023-01-20T01:32:43.636Z,10.13
2023-01-20T01:35:11.047Z,10.20
2023-01-20T01:37:38.321Z,10.37
2023-01-20T01:40:05.780Z,10.43
2023-01-20T01:42:33.447Z,10.67
2023-01-20T01:45:13.118Z,10.17
2023-01-20T01:47:40.634Z,10.90
2023-01-20T01:50:09.838Z,9.90
2023-01-20T01:52:37.050Z,10.60
2023-01-20T01:55:04.475Z,10.20
2023-01-20T01:57:32.316Z,10.97
2023-01-20T01:59:59.495Z,10.83
2023-01-20T02:02:26.852Z,11.00
2023-01-20T02:04:54.121Z,10.63
2023-01-20T02:07:21.711Z,11.20
2023-01-20T02:09:48.915Z,10.33
2023-01-20T02:12:18.086Z,11.13
2023-01-20T02:14:51.298Z,10.80
2023-01-20T02:17:35.732Z,10.63
2023-01-20T02:20:14.984Z,11.33
2023-01-20T02:23:01.085Z,11.20
2023-01-20T02:25:34.466Z,11.87
2023-01-20T02:28:23.753Z,12.40
2023-01-20T02:31:29.582Z,11.97
2023-01-20T02:33:56.984Z,12.37
2023-01-20T02:36:33.689Z,12.33
2023-01-20T02:39:03.707Z,13.77
2023-01-20T02:41:37.489Z,13.50
2023-01-20T02:44:09.822Z,12.27
2023-01-20T02:46:38.573Z,12.17
2023-01-20T02:49:14.466Z,12.77
2023-01-20T02:51:45.926Z,12.03
2023-01-20T02:54:14.486Z,12.27
2023-01-20T02:56:41.883Z,12.60
2023-01-20T02:59:11.360Z,12.67
2023-01-20T03:01:42.633Z,12.30
2023-01-20T03:04:11.784Z,13.17
2023-01-20T03:06:42.861Z,13.50
2023-01-20T03:09:11.895Z,12.13
2023-01-20T03:11:41.768Z,12.40
2023-01-20T03:14:13.707Z,12.57
2023-01-20T03:16:41.749Z,13.33
2023-01-20T03:19:09.185Z,12.60
2023-01-20T03:21:36.738Z,12.57
2023-01-20T03:24:05.544Z,11.83
2023-01-20T03:26:32.869Z,12.53
2023-01-20T03:29:02.243Z,12.23
2023-01-20T03:31:31.452Z,12.50
2023-01-20T03:34:00.761Z,12.43
2023-01-20T03:36:29.106Z,13.13
2023-01-20T03:38:57.075Z,13.27
2023-01-20T03:41:34.823Z,12.63
2023-01-20T03:44:12.489Z,13.10
2023-01-20T03:46:48.570Z,13.70
2023-01-20T03:49:36.361Z,13.73
2023-01-20T03:52:12.759Z,12.87
2023-01-20T03:55:01.430Z,12.80
2023-01-20T03:57:40.462Z,13.30
2023-01-20T04:00:09.331Z,13.70
2023-01-20T04:02:56.850Z,12.87
2023-01-20T04:05:24.642Z,13.47
2023-01-20T04:07:53.714Z,13.23
2023-01-20T04:10:21.008Z,13.80
2023-01-20T04:12:48.201Z,13.17
2023-01-20T04:15:15.966Z,13.20
2023-01-20T04:17:43.365Z,12.60
2023-01-20T04:20:11.365Z,12.97
2023-01-20T04:22:45.084Z,14.00
2023-01-20T04:25:18.454Z,13.97
2023-01-20T04:27:45.717Z,14.23
2023-01-20T04:30:13.970Z,14.57
2023-01-20T04:32:41.258Z,14.03
2023-01-20T04:35:08.700Z,14.33
2023-01-20T04:37:35.963Z,14.27
2023-01-20T04:40:03.178Z,14.37
2023-01-20T04:42:30.719Z,13.13
2023-01-20T04:44:58.040Z,14.73
2023-01-20T04:47:25.456Z,13.43
2023-01-20T04:49:52.686Z,15.13
2023-01-20T04:52:19.869Z,14.13
2023-01-20T04:54:47.103Z,15.03
2023-01-20T04:57:14.399Z,14.77
2023-01-20T04:59:42.543Z,14.80
2023-01-20T05:02:09.779Z,14.23
2023-01-20T05:04:38.128Z,14.70
2023-01-20T05:07:05.338Z,15.57
2023-01-20T05:09:32.537Z,14.17
2023-01-20T05:11:59.907Z,15.30
2023-01-20T05:14:27.462Z,17.00
2023-01-20T05:16:54.700Z,16.93
2023-01-20T05:19:21.930Z,16.73
2023-01-20T05:21:49.114Z,16.90
2023-01-20T05:24:16.328Z,16.87
2023-01-20T05:26:43.551Z,18.83
2023-01-20T05:29:10.785Z,22.93
2023-01-20T05:31:42.980Z,18.83
2023-01-20T05:34:10.732Z,16.63
2023-01-20T05:36:37.980Z,17.17
2023-01-20T05:39:05.320Z,17.13
2023-01-20T05:41:32.511Z,17.23
2023-01-20T05:43:59.872Z,16.97
2023-01-20T05:46:27.108Z,18.20
2023-01-20T05:48:54.475Z,18.17
2023-01-20T05:51:21.793Z,17.57
2023-01-20T05:53:49.017Z,17.13
2023-01-20T05:56:16.363Z,17.47
2023-01-20T05:58:43.828Z,17.37
2023-01-20T06:01:12.272Z,46.20
2023-01-20T06:03:39.854Z,18.37
2023-01-20T06:06:08.346Z,17.63
2023-01-20T06:08:36.027Z,18.20
2023-01-20T06:11:03.443Z,18.90
2023-01-20T06:13:30.759Z,18.73
2023-01-20T06:15:58.099Z,18.30
2023-01-20T06:18:25.621Z,18.67
2023-01-20T06:20:53.165Z,17.50
2023-01-20T06:23:20.442Z,18.47
2023-01-20T06:25:47.708Z,17.87
2023-01-20T06:28:33.857Z,19.57
2023-01-20T06:31:02.289Z,18.90
2023-01-20T06:33:29.957Z,18.70
2023-01-20T06:35:57.461Z,19.47
2023-01-20T06:38:25.795Z,19.07
2023-01-20T06:40:57.712Z,19.13
2023-01-20T06:43:25.312Z,19.17
2023-01-20T06:45:52.643Z,18.73
2023-01-20T06:48:20.074Z,18.17
2023-01-20T06:50:47.294Z,17.70
2023-01-20T06:53:14.535Z,18.43
2023-01-20T06:55:41.763Z,18.37
2023-01-20T06:58:08.989Z,18.33
2023-01-20T07:00:36.303Z,17.80
2023-01-20T07:03:03.552Z,18.77
2023-01-20T07:05:30.816Z,18.43
2023-01-20T07:07:58.621Z,18.47
2023-01-20T07:10:26.019Z,18.70
2023-01-20T07:12:53.296Z,18.03
2023-01-20T07:15:20.534Z,17.47
2023-01-20T07:17:47.784Z,18.83
2023-01-20T07:20:15.153Z,18.67
2023-01-20T07:22:42.427Z,17.30
2023-01-20T07:25:09.911Z,17.20
2023-01-20T07:27:37.269Z,18.10
2023-01-20T07:30:04.686Z,16.47
2023-01-20T07:32:31.971Z,15.43
2023-01-20T07:34:59.212Z,16.17
2023-01-20T07:37:26.409Z,15.70
2023-01-20T07:39:53.656Z,16.73
2023-01-20T07:42:20.952Z,16.30
2023-01-20T07:44:48.700Z,16.80
2023-01-20T07:47:15.931Z,17.30
2023-01-20T07:49:43.135Z,16.33
2023-01-20T07:52:10.384Z,16.37
2023-01-20T07:54:37.642Z,16.20
2023-01-20T07:57:04.902Z,16.73
2023-01-20T07:59:32.192Z,16.77
2023-01-20T08:01:59.616Z,16.83
2023-01-20T08:04:26.942Z,16.70
2023-01-20T08:06:54.243Z,17.20
2023-01-20T08:09:21.466Z,16.50
2023-01-20T08:11:48.704Z,16.80
2023-01-20T08:14:15.998Z,17.27
2023-01-20T08:16:43.413Z,16.70
2023-01-20T08:19:10.960Z,16.43
2023-01-20T08:21:38.216Z,16.20
2023-01-20T08:24:06.608Z,16.43
2023-01-20T08:26:34.549Z,16.90
2023-01-20T08:29:03.251Z,17.00
2023-01-20T08:31:30.676Z,16.77
2023-01-20T08:34:18.615Z,17.23
2023-01-20T08:36:46.266Z,16.77
2023-01-20T08:39:19.006Z,17.47
2023-01-20T08:41:47.445Z,16.43
2023-01-20T08:44:15.665Z,15.93
2023-01-20T08:46:43.478Z,16.63
2023-01-20T08:49:12.682Z,16.37
2023-01-20T08:51:40.127Z,15.77
2023-01-20T08:54:07.772Z,15.77
2023-01-20T08:56:36.677Z,16.17
2023-01-20T08:59:04.048Z,16.57
2023-01-20T09:01:33.751Z,15.73
2023-01-20T09:04:06.517Z,16.97
2023-01-20T09:06:38.192Z,16.23
2023-01-20T09:09:05.501Z,16.47
2023-01-20T09:11:32.898Z,16.07
2023-01-20T09:14:00.281Z,16.80
2023-01-20T09:16:28.545Z,16.33
2023-01-20T09:18:55.830Z,16.87
2023-01-20T09:21:24.571Z,16.67
2023-01-20T09:23:52.230Z,16.30
2023-01-20T09:26:34.221Z,14.70
2023-01-20T09:29:09.243Z,14.93
2023-01-20T09:31:40.829Z,15.17
2023-01-20T09:34:08.496Z,14.70
2023-01-20T09:36:35.704Z,13.90
2023-01-20T09:39:21.481Z,15.30
2023-01-20T09:42:08.317Z,15.70
2023-01-20T09:44:49.071Z,15.87
2023-01-20T09:47:27.307Z,15.00
2023-01-20T09:50:32.942Z,14.73
2023-01-20T09:53:23.348Z,15.50
2023-01-20T09:55:54.683Z,14.97
2023-01-20T09:58:21.963Z,14.87
2023-01-20T10:01:00.371Z,16.33
2023-01-20T10:03:29.336Z,15.87
2023-01-20T10:05:59.135Z,15.10
2023-01-20T10:08:29.065Z,15.57
2023-01-20T10:10:58.134Z,16.03
2023-01-20T10:13:47.412Z,15.43
2023-01-20T10:16:21.197Z,14.17
2023-01-20T10:18:50.048Z,15.23
2023-01-20T10:21:20.548Z,14.77
2023-01-20T10:23:52.251Z,15.87
2023-01-20T10:26:41.307Z,15.50
2023-01-20T10:29:12.040Z,15.90
2023-01-20T10:31:43.654Z,16.47
2023-01-20T10:34:15.823Z,15.60
2023-01-20T10:36:44.956Z,16.20
2023-01-20T10:39:27.158Z,15.87
2023-01-20T10:41:58.468Z,16.10
2023-01-20T10:44:26.389Z,16.37
2023-01-20T10:46:53.766Z,15.83
2023-01-20T10:49:27.178Z,15.77
2023-01-20T10:51:59.849Z,16.57
2023-01-20T10:54:35.739Z,16.03
2023-01-20T10:57:05.137Z,16.40
2023-01-20T10:59:42.839Z,16.73
2023-01-20T11:05:03.786Z,16.83
2023-01-20T11:07:33.368Z,16.43
2023-01-20T11:10:09.799Z,17.30
2023-01-20T11:12:40.611Z,16.03
2023-01-20T11:15:16.947Z,16.83
2023-01-20T11:17:44.226Z,16.67
2023-01-20T11:20:19.477Z,17.33
2023-01-20T11:22:48.307Z,15.40
2023-01-20T11:25:26.207Z,16.43
2023-01-20T11:27:53.779Z,17.07
2023-01-20T11:30:29.186Z,16.70
2023-01-20T11:33:15.476Z,17.73
2023-01-20T11:35:56.992Z,18.97
2023-01-20T11:38:28.957Z,17.37
2023-01-20T11:40:57.450Z,16.90
2023-01-20T11:43:38.409Z,17.73
2023-01-20T11:46:24.512Z,18.30
2023-01-20T11:49:06.505Z,19.20
2023-01-20T11:51:33.759Z,17.80
2023-01-20T11:54:08.291Z,17.87
2023-01-20T11:56:41.753Z,18.33
2023-01-20T11:59:29.272Z,18.30
2023-01-20T12:02:01.844Z,18.40
2023-01-20T12:04:37.252Z,17.87
2023-01-20T12:07:09.749Z,18.57
2023-01-20T12:09:42.222Z,17.77
2023-01-20T12:12:15.468Z,18.23
2023-01-20T12:14:55.427Z,19.13
2023-01-20T12:17:30.060Z,19.40
2023-01-20T12:20:09.716Z,18.67
2023-01-20T12:22:57.654Z,19.00
2023-01-20T12:25:28.206Z,19.03
2023-01-20T12:28:15.775Z,19.27
2023-01-20T12:30:45.562Z,17.97
2023-01-20T12:33:20.817Z,19.53
2023-01-20T12:36:02.649Z,19.50
2023-01-20T12:38:32.422Z,19.27
2023-01-20T12:41:01.707Z,18.90
2023-01-20T12:43:49.203Z,19.87
2023-01-20T12:46:19.486Z,19.00
2023-01-20T12:48:55.513Z,19.83
2023-01-20T12:51:41.275Z,19.80
2023-01-20T12:54:14.632Z,19.03
2023-01-20T12:56:56.095Z,20.60
2023-01-20T12:59:42.170Z,19.40
2023-01-20T13:02:09.447Z,18.97
2023-01-20T13:04:55.341Z,20.07
2023-01-20T13:07:41.095Z,19.43
2023-01-20T13:10:32.974Z,20.00
2023-01-20T13:13:03.267Z,20.43
2023-01-20T13:15:30.806Z,21.20
2023-01-20T13:18:16.194Z,19.93
2023-01-20T13:20:45.531Z,21.07
2023-01-20T13:23:16.798Z,21.23
2023-01-20T13:25:45.604Z,21.30
2023-01-20T13:28:20.044Z,20.17
2023-01-20T13:30:50.788Z,20.63
2023-01-20T13:33:33.778Z,20.67
2023-01-20T13:36:02.428Z,20.43
2023-01-20T13:38:33.074Z,20.47
2023-01-20T13:41:03.470Z,20.30
2023-01-20T13:43:33.797Z,20.27
2023-01-20T13:46:04.657Z,20.80
2023-01-20T13:48:33.361Z,19.27
2023-01-20T13:51:19.205Z,19.40
2023-01-20T13:53:46.960Z,18.80
2023-01-20T13:59:09.077Z,17.47
2023-01-20T14:01:37.345Z,19.60
2023-01-20T14:04:05.805Z,18.80
2023-01-20T14:06:35.766Z,18.83
2023-01-20T14:09:04.279Z,17.60
2023-01-20T14:11:31.555Z,19.20
2023-01-20T14:14:08.621Z,19.10
2023-01-20T14:16:35.939Z,19.53
2023-01-20T14:19:14.098Z,18.50
2023-01-20T14:21:42.294Z,19.77
2023-01-20T14:24:29.318Z,19.20
2023-01-20T14:27:11.896Z,18.33
2023-01-20T14:29:39.974Z,18.73
2023-01-20T14:32:25.885Z,17.97
2023-01-20T14:34:53.843Z,18.30
2023-01-20T14:37:29.367Z,19.97
2023-01-20T14:39:58.707Z,19.70
2023-01-20T14:42:26.825Z,20.07
2023-01-20T14:44:55.309Z,19.30
2023-01-20T14:47:23.514Z,19.23
2023-01-20T14:49:51.556Z,19.20
2023-01-20T14:52:30.346Z,19.53
2023-01-20T14:54:58.262Z,19.77
2023-01-20T14:57:28.696Z,20.10
2023-01-20T15:00:02.053Z,19.07
2023-01-20T15:02:34.358Z,18.60
2023-01-20T15:05:01.924Z,17.40
2023-01-20T15:07:29.200Z,18.73
2023-01-20T15:10:01.720Z,18.47
2023-01-20T15:12:37.924Z,18.57
2023-01-20T15:15:08.029Z,18.40
2023-01-20T15:17:35.341Z,19.67
2023-01-20T15:20:02.691Z,18.77
2023-01-20T15:22:30.389Z,18.50
2023-01-20T15:25:04.055Z,18.67
2023-01-20T15:27:34.714Z,19.10
2023-01-20T15:30:13.991Z,19.67
2023-01-20T15:32:41.512Z,19.17
2023-01-20T15:35:12.808Z,19.27
2023-01-20T15:37:40.744Z,20.13
2023-01-20T15:40:13.962Z,20.37
2023-01-20T15:42:42.556Z,19.90
2023-01-20T15:45:13.620Z,20.87
2023-01-20T15:47:40.938Z,20.37
2023-01-20T15:50:13.871Z,19.10
2023-01-20T15:52:41.259Z,20.57
2023-01-20T15:55:09.470Z,20.13
2023-01-20T15:57:36.834Z,21.17
2023-01-20T16:00:05.585Z,20.43
2023-01-20T16:02:52.950Z,21.70
2023-01-20T16:05:20.409Z,20.33
2023-01-20T16:07:49.509Z,21.20
2023-01-20T16:10:18.261Z,19.50
2023-01-20T16:12:46.182Z,21.37
2023-01-20T16:15:15.061Z,20.27
2023-01-20T16:17:42.698Z,20.10
2023-01-20T16:20:17.511Z,21.07
2023-01-20T16:22:45.279Z,19.13
2023-01-20T16:25:12.599Z,20.17
2023-01-20T16:27:39.905Z,20.03
2023-01-20T16:30:07.527Z,19.57
2023-01-20T16:32:34.838Z,19.90
2023-01-20T16:35:02.255Z,20.50
2023-01-20T16:37:29.562Z,20.20
2023-01-20T16:39:56.863Z,19.30
2023-01-20T16:42:24.369Z,18.90
2023-01-20T16:44:53.357Z,19.77
2023-01-20T16:47:20.632Z,19.40
2023-01-20T16:49:47.953Z,19.63
2023-01-20T16:52:15.203Z,19.10
2023-01-20T16:54:42.543Z,18.47
2023-01-20T16:57:10.415Z,19.87
2023-01-20T16:59:37.685Z,21.23
2023-01-20T17:02:04.935Z,20.03
2023-01-20T17:04:32.338Z,17.63
2023-01-20T17:07:00.208Z,15.17
2023-01-20T17:09:27.596Z,14.77
2023-01-20T17:11:54.987Z,14.87
2023-01-20T17:14:22.271Z,14.90
2023-01-20T17:16:49.780Z,14.67
2023-01-20T17:19:17.838Z,15.07
2023-01-20T17:21:45.254Z,14.37
2023-01-20T17:24:12.881Z,15.30
2023-01-20T17:26:40.182Z,15.63
2023-01-20T17:29:08.558Z,16.33
2023-01-20T17:31:36.936Z,16.20
2023-01-20T17:34:05.238Z,16.97
2023-01-20T17:36:35.864Z,15.80
2023-01-20T17:39:03.431Z,15.17
2023-01-20T17:41:30.789Z,14.73
2023-01-20T17:43:58.041Z,15.07
2023-01-20T17:46:27.817Z,14.77
2023-01-20T17:48:56.912Z,15.10
2023-01-20T17:51:25.332Z,16.70
2023-01-20T17:53:53.201Z,14.50
2023-01-20T17:56:21.204Z,13.47
2023-01-20T17:58:49.484Z,14.53
2023-01-20T18:01:27.286Z,13.97
2023-01-20T18:03:55.648Z,13.67
2023-01-20T18:06:23.569Z,13.97
2023-01-20T18:08:53.859Z,13.97
2023-01-20T18:11:21.690Z,15.23
2023-01-20T18:13:55.133Z,16.47
2023-01-20T18:16:23.233Z,15.57
2023-01-20T18:18:50.917Z,15.57
2023-01-20T18:21:19.635Z,15.83
2023-01-20T18:23:47.970Z,16.13
2023-01-20T18:26:16.297Z,16.10
2023-01-20T18:28:44.043Z,17.20
2023-01-20T18:31:15.849Z,15.57
2023-01-20T18:33:44.573Z,16.83
2023-01-20T18:36:31.876Z,25.13
2023-01-20T18:39:19.438Z,21.73
2023-01-20T18:41:47.543Z,18.47
2023-01-20T18:44:15.000Z,18.37
2023-01-20T18:46:42.489Z,17.90
2023-01-20T18:49:12.813Z,19.10
2023-01-20T18:51:41.597Z,18.30
2023-01-20T18:54:11.299Z,17.93
2023-01-20T18:56:38.698Z,18.00
2023-01-20T18:59:06.579Z,17.03
2023-01-20T19:01:34.991Z,18.33
2023-01-20T19:04:03.078Z,18.80
2023-01-20T19:06:31.793Z,18.90
2023-01-20T19:08:59.534Z,18.07
2023-01-20T19:11:29.342Z,17.60
2023-01-20T19:13:56.982Z,17.83
2023-01-20T19:16:25.668Z,17.73
2023-01-20T19:18:54.605Z,17.93
2023-01-20T19:21:22.921Z,16.90
2023-01-20T19:23:50.682Z,14.87
2023-01-20T19:26:18.744Z,15.67
2023-01-20T19:28:46.930Z,16.00
2023-01-20T19:31:16.605Z,16.13
2023-01-20T19:33:44.869Z,17.77
2023-01-20T19:36:13.828Z,16.40
2023-01-20T19:39:00.904Z,17.37
2023-01-20T19:41:29.543Z,16.70
2023-01-20T19:43:57.663Z,16.07
2023-01-20T19:46:29.322Z,15.53
2023-01-20T19:49:00.238Z,15.83
2023-01-20T19:51:27.829Z,14.90
2023-01-20T19:53:58.154Z,16.20
2023-01-20T19:56:26.580Z,15.33
2023-01-20T19:58:54.661Z,14.27
2023-01-20T20:01:23.580Z,13.80
2023-01-20T20:03:51.443Z,13.53
2023-01-20T20:06:32.631Z,13.13
2023-01-20T20:09:01.104Z,13.10
2023-01-20T20:11:29.061Z,19.37
2023-01-20T20:14:00.722Z,12.27
2023-01-20T20:16:29.220Z,13.03
2023-01-20T20:18:57.149Z,10.27
2023-01-20T20:21:24.788Z,11.50
2023-01-20T20:23:53.237Z,12.87
2023-01-20T20:26:21.475Z,12.03
2023-01-20T20:28:48.839Z,12.20
2023-01-20T20:31:16.387Z,11.77
2023-01-20T20:33:46.174Z,13.07
2023-01-20T20:36:13.945Z,13.47
2023-01-20T20:38:41.688Z,13.90
2023-01-20T20:41:09.585Z,14.60
2023-01-20T20:43:38.091Z,15.23
2023-01-20T20:46:06.674Z,15.60
2023-01-20T20:48:33.998Z,15.37
2023-01-20T20:51:11.961Z,14.97
2023-01-20T20:53:39.590Z,14.93
2023-01-20T20:56:08.780Z,15.33
2023-01-20T20:58:36.584Z,26.63
2023-01-20T21:01:04.452Z,18.17
2023-01-20T21:03:34.281Z,20.13
2023-01-20T21:06:02.151Z,16.43
2023-01-20T21:08:29.506Z,15.53
2023-01-20T21:11:03.581Z,16.00
2023-01-20T21:13:31.398Z,15.47
2023-01-20T21:16:00.528Z,15.00
2023-01-20T21:18:28.470Z,16.03
2023-01-20T21:20:56.725Z,15.87
2023-01-20T21:23:24.448Z,14.63
2023-01-20T21:25:51.943Z,31.10
2023-01-20T21:28:19.367Z,18.03
2023-01-20T21:30:46.813Z,15.53
2023-01-20T21:33:17.622Z,15.33
2023-01-20T21:35:46.056Z,14.87
2023-01-20T21:38:13.729Z,16.47
2023-01-20T21:40:41.797Z,15.37
2023-01-20T21:43:27.898Z,14.07
2023-01-20T21:45:56.341Z,16.00
2023-01-20T21:48:42.754Z,14.17
2023-01-20T21:51:29.663Z,15.20
2023-01-20T21:53:56.931Z,14.40
2023-01-20T21:56:24.184Z,15.00
2023-01-20T21:58:51.604Z,13.53
2023-01-20T22:01:18.912Z,14.23
2023-01-20T22:03:46.177Z,12.80
2023-01-20T22:06:13.540Z,13.97
2023-01-20T22:08:40.769Z,14.23
2023-01-20T22:11:08.077Z,13.50
2023-01-20T22:13:35.439Z,14.53
2023-01-20T22:16:03.639Z,14.27
2023-01-20T22:18:31.269Z,13.60
2023-01-20T22:21:05.544Z,14.17
2023-01-20T22:23:33.540Z,13.60
2023-01-20T22:26:00.920Z,13.33
2023-01-20T22:28:30.208Z,13.27
2023-01-20T22:30:57.563Z,14.33
2023-01-20T22:33:25.159Z,14.57
2023-01-20T22:35:54.763Z,14.60
2023-01-20T22:38:22.086Z,15.20
2023-01-20T22:40:49.337Z,15.77
2023-01-20T22:43:16.735Z,14.10
2023-01-20T22:45:44.087Z,14.23
2023-01-20T22:48:11.574Z,13.60
2023-01-20T22:50:39.000Z,13.50
2023-01-20T22:53:06.499Z,14.10
2023-01-20T22:55:33.879Z,13.53
2023-01-20T22:58:01.587Z,13.30
2023-01-20T23:00:29.380Z,13.23
2023-01-20T23:02:56.867Z,13.53
2023-01-20T23:05:24.343Z,12.20
2023-01-20T23:07:51.625Z,11.63
2023-01-20T23:10:37.758Z,11.10
2023-01-20T23:13:05.118Z,11.77
2023-01-20T23:15:33.221Z,11.03
2023-01-20T23:18:00.452Z,11.60
2023-01-20T23:20:27.792Z,10.40
2023-01-20T23:22:55.386Z,11.17
2023-01-20T23:25:23.004Z,10.83
2023-01-20T23:27:50.278Z,11.37
2023-01-20T23:30:18.271Z,11.40
2023-01-20T23:32:45.768Z,10.50
2023-01-20T23:35:13.098Z,11.17
2023-01-20T23:37:40.353Z,10.50
2023-01-20T23:40:07.783Z,11.30
2023-01-20T23:42:35.082Z,11.67
2023-01-20T23:45:02.387Z,10.73
2023-01-20T23:47:29.797Z,11.30
2023-01-20T23:49:57.192Z,10.13
2023-01-20T23:52:25.965Z,10.27
2023-01-20T23:54:53.706Z,10.03
2023-01-20T23:57:21.265Z,11.43
2023-01-20T23:59:48.608Z,10.50
